Terminal Aerodrome Forecast
Issued by NWS Amarillo, TX

Home | Current Version | Previous Version | Text Only | Print | Product List | Glossary On
Versions: 1 2 3 4 5 6 7 8 9 10 11 12 13 14 15 16 17 18 19 20 21 22 23 24 25 26
000
FTUS44 KAMA 301200 AAA
TAFGUY
TAF AMD
KGUY 301258Z 3013/3112 22010KT P6SM BKN025 OVC040
     FM301400 32014KT P6SM OVC025
     FM302000 04014KT P6SM SCT015 OVC060
     FM310300 02006KT 4SM BR OVC008=

USA.gov is the U.S. government's official web portal to all federal, state and local government web resources and services.